This is the latest recevied weather packets stored in our database for station/object W5ITZ. If no packets are shown the sender has not sent any weather packets the latest 10 day(s).
| Time | Temp. | Humidity | Pressure | Rain* | Wind** | Luminosity | Snow |
|---|---|---|---|---|---|---|---|
| 1788192542 | 33.89° C | 53% | 1016.5 hPa | 0 mm | - | 873 W/m² | - |
| 1788192236 | 33.89° C | 56% | 1016.7 hPa | 0 mm | - | 851 W/m² | - |
| 1788191931 | 33.33° C | 58% | 1016.6 hPa | 0 mm | - | 837 W/m² | - |
| 1788191631 | 33.33° C | 58% | 1016.5 hPa | 0 mm | - | 833 W/m² | - |
| 1788191326 | 33.33° C | 59% | 1016.6 hPa | 0 mm | - | 832 W/m² | - |
| 1788191023 | 34.44° C | 55% | 1016.4 hPa | 0 mm | - | 545 W/m² | - |
| 1788190721 | 33.89° C | 54% | 1016.4 hPa | 0 mm | - | 732 W/m² | - |
| 1788190417 | 33.33° C | 60% | 1016.5 hPa | 0 mm | - | 714 W/m² | - |
| 1788190113 | 33.33° C | 60% | 1016.4 hPa | 0 mm | - | 441 W/m² | - |
| 1788189809 | 32.78° C | 61% | 1016.4 hPa | 0 mm | - | 681 W/m² | - |
| 1788189511 | 32.78° C | 62% | 1016.2 hPa | 0 mm | - | 654 W/m² | - |
| 1788189203 | 32.78° C | 64% | 1016.5 hPa | 0 mm | - | 639 W/m² | - |
| 1788188898 | 32.22° C | 65% | 1016.4 hPa | 0 mm | - | 614 W/m² | - |
| 1788188594 | 31.67° C | 66% | 1016.3 hPa | 0 mm | - | 579 W/m² | - |
| 1788188293 | 31.67° C | 69% | 1016.5 hPa | 0 mm | - | 582 W/m² | - |
| 1788187989 | 31.11° C | 72% | 1016.4 hPa | 0 mm | - | 595 W/m² | - |
| 1788187685 | 31.67° C | 70% | 1016.3 hPa | 0 mm | - | 160 W/m² | - |
| 1788187381 | 31.67° C | 72% | 1016.2 hPa | 0 mm | - | 560 W/m² | - |
| 1788187080 | 31.67° C | 71% | 1016.2 hPa | 0 mm | - | 538 W/m² | - |
| 1788186775 | 31.67° C | 73% | 1016.3 hPa | 0 mm | - | 545 W/m² | - |
| 1788186470 | 31.67° C | 73% | 1016 hPa | 0 mm | - | 517 W/m² | - |
| 1788186166 | 31.11° C | 74% | 1016 hPa | 0 mm | - | 450 W/m² | - |
| 1788185866 | 31.67° C | 73% | 1016.3 hPa | 0 mm | - | 370 W/m² | - |
| 1788185566 | 31.67° C | 73% | 1016.2 hPa | 0 mm | - | 164 W/m² | - |
| 1788185261 | 30.56° C | 77% | 1016.1 hPa | 0 mm | - | 312 W/m² | - |
* Rain latest hour (hover to see other rain measurements)
** Current wind speed in m/s (hover to see current wind gust speed)